Time;durP1;ratioP1;P1;durP2;ratioP2;P2;SDS_P1;SDS_P2;PMS_P1;PMS_P2;Temp;Humidity;BMP_temperature;BMP_pressure;BME280_temperature;BME280_humidity;BME280_pressure;Samples;Min_cycle;Max_cycle;Signal;HPM_P1;HPM_P2
2023/07/10 00:00:45;;;;;;;8.40;5.05;;;;;;;;;;6326919;28;20123;-78
2023/07/10 00:03:47;;;;;;;9.20;5.32;;;;;;;;;;6323616;28;20090;-78
2023/07/10 00:06:49;;;;;;;10.98;5.95;;;;;;;;;;6328262;28;20359;-79
2023/07/10 00:09:51;;;;;;;;;;;;;;;;;;6330086;28;20056;-79
2023/07/10 00:12:52;;;;;;;7.50;5.50;;;;;;;;;;6326134;28;19923;-79
2023/07/10 00:15:57;;;;;;;9.18;5.80;;;;;;;;;;6316946;28;20048;-79
2023/07/10 00:18:59;;;;;;;7.57;5.20;;;;;;;;;;6326311;28;20105;-80
2023/07/10 00:22:12;;;;;;;11.10;6.72;;;;;;;;;;6327538;28;20048;-79
2023/07/10 00:25:16;;;;;;;8.82;5.68;;;;;;;;;;6327655;28;20045;-79
2023/07/10 00:28:18;;;;;;;10.20;6.38;;;;;;;;;;6326921;28;20328;-78
2023/07/10 00:31:20;;;;;;;8.05;5.75;;;;;;;;;;6325856;28;20295;-79
2023/07/10 00:34:25;;;;;;;10.10;5.93;;;;;;;;;;6327203;28;20047;-80
2023/07/10 00:37:27;;;;;;;8.23;5.63;;;;;;;;;;6322700;28;20127;-79
2023/07/10 00:40:29;;;;;;;;;;;;;;;;;;6328288;28;20059;-74
2023/07/10 00:43:33;;;;;;;8.15;5.82;;;;;;;;;;6325862;28;19916;-75
2023/07/10 00:46:35;;;;;;;8.02;5.55;;;;;;;;;;6326730;28;20210;-75
2023/07/10 00:49:41;;;;;;;7.88;6.10;;;;;;;;;;6324757;28;20276;-75
2023/07/10 00:52:45;;;;;;;9.73;6.63;;;;;;;;;;6324442;28;20225;-76
2023/07/10 00:55:46;;;;;;;8.93;6.78;;;;;;;;;;6326039;28;20063;-75
2023/07/10 00:58:48;;;;;;;9.38;6.40;;;;;;;;;;6324467;28;20290;-75
2023/07/10 01:02:17;;;;;;;9.13;6.30;;;;;;;;;;6325891;28;20059;-75
2023/07/10 01:05:19;;;;;;;11.13;6.75;;;;;;;;;;6219819;28;20385;-76
2023/07/10 01:08:23;;;;;;;9.67;6.03;;;;;;;;;;6216804;28;20061;-76
2023/07/10 01:11:24;;;;;;;8.18;5.90;;;;;;;;;;6216139;28;20211;-76
2023/07/10 01:14:26;;;;;;;8.05;6.40;;;;;;;;;;6219348;28;20309;-76
2023/07/10 01:17:28;;;;;;;8.80;6.22;;;;;;;;;;6218221;28;20052;-77
2023/07/10 01:20:32;;;;;;;10.48;6.32;;;;;;;;;;6216326;28;20053;-77
2023/07/10 01:23:35;;;;;;;8.43;6.63;;;;;;;;;;6217946;28;20057;-77
2023/07/10 01:26:38;;;;;;;11.60;6.50;;;;;;;;;;6222060;28;20054;-77
2023/07/10 01:29:42;;;;;;;;;;;;;;;;;;6219157;28;20251;-78
2023/07/10 01:32:43;;;;;;;9.38;6.38;;;;;;;;;;6215064;28;20265;-74
2023/07/10 01:35:46;;;;;;;10.65;6.20;;;;;;;;;;6217131;28;20049;-76
2023/07/10 01:38:55;;;;;;;9.18;6.13;;;;;;;;;;6214311;28;20457;-75
2023/07/10 01:41:56;;;;;;;11.25;6.40;;;;;;;;;;6314720;28;20063;-77
2023/07/10 01:44:57;;;;;;;9.00;6.10;;;;;;;;;;6323942;28;20052;-77
2023/07/10 01:47:59;;;;;;;8.05;6.13;;;;;;;;;;6324535;28;20048;-74
2023/07/10 01:51:00;;;;;;;10.02;6.40;;;;;;;;;;6323693;28;20082;-74
2023/07/10 01:54:05;;;;;;;11.25;6.82;;;;;;;;;;6325386;28;20236;-75
2023/07/10 01:57:06;;;;;;;10.80;6.18;;;;;;;;;;6328401;28;20066;-76
2023/07/10 02:00:12;;;;;;;9.70;5.85;;;;;;;;;;6324881;28;20070;-74
2023/07/10 02:03:13;;;;;;;10.25;6.50;;;;;;;;;;6324029;28;20124;-74
2023/07/10 02:06:15;;;;;;;8.55;6.68;;;;;;;;;;6323654;28;20066;-74
2023/07/10 02:09:18;;;;;;;10.27;7.18;;;;;;;;;;6322883;28;20036;-74
2023/07/10 02:12:19;;;;;;;10.60;6.93;;;;;;;;;;6327470;28;20051;-77
2023/07/10 02:15:21;;;;;;;10.48;6.45;;;;;;;;;;6328848;28;20346;-77
2023/07/10 02:18:22;;;;;;;8.35;6.35;;;;;;;;;;6328043;28;20059;-74
2023/07/10 02:21:24;;;;;;;8.07;6.80;;;;;;;;;;6330083;28;20321;-74
2023/07/10 02:24:27;;;;;;;9.15;6.47;;;;;;;;;;6329913;28;20108;-74
2023/07/10 02:27:28;;;;;;;8.93;6.30;;;;;;;;;;6329164;28;20271;-76
2023/07/10 02:30:30;;;;;;;8.50;6.45;;;;;;;;;;6330754;28;20062;-76
2023/07/10 02:33:31;;;;;;;11.35;6.43;;;;;;;;;;6325265;28;20248;-76
2023/07/10 02:36:33;;;;;;;13.55;6.63;;;;;;;;;;6330698;28;20048;-76
2023/07/10 02:39:36;;;;;;;7.50;5.80;;;;;;;;;;6328881;28;20056;-76
2023/07/10 02:42:38;;;;;;;8.05;6.07;;;;;;;;;;6330611;28;20054;-76
2023/07/10 02:45:39;;;;;;;9.48;6.13;;;;;;;;;;6329508;28;20052;-76
2023/07/10 02:48:41;;;;;;;8.02;6.13;;;;;;;;;;6328762;28;20048;-77
2023/07/10 02:51:42;;;;;;;9.23;6.03;;;;;;;;;;6324327;28;20056;-78
2023/07/10 02:54:45;;;;;;;10.27;6.60;;;;;;;;;;6325140;28;20055;-76
2023/07/10 02:57:46;;;;;;;8.85;6.40;;;;;;;;;;6318294;28;20060;-76
2023/07/10 03:00:55;;;;;;;10.57;6.72;;;;;;;;;;6300235;28;20049;-76
2023/07/10 03:03:56;;;;;;;9.75;6.22;;;;;;;;;;6303800;28;20052;-76
2023/07/10 03:06:58;;;;;;;8.25;6.35;;;;;;;;;;6302857;28;20126;-76
2023/07/10 03:10:00;;;;;;;6.82;5.60;;;;;;;;;;6303662;28;20075;-77
2023/07/10 03:13:02;;;;;;;7.07;5.80;;;;;;;;;;6305858;28;20052;-76
2023/07/10 03:16:04;;;;;;;9.02;6.15;;;;;;;;;;6303472;28;20324;-76
2023/07/10 03:19:06;;;;;;;9.30;6.13;;;;;;;;;;6302911;28;20222;-77
2023/07/10 03:22:07;;;;;;;8.48;5.70;;;;;;;;;;6303015;28;20826;-76
2023/07/10 03:25:10;;;;;;;9.57;6.13;;;;;;;;;;6304861;28;20119;-76
2023/07/10 03:28:12;;;;;;;13.07;6.30;;;;;;;;;;6300799;28;20207;-78
2023/07/10 03:31:13;;;;;;;10.93;6.32;;;;;;;;;;6305631;28;20064;-76
2023/07/10 03:34:15;;;;;;;7.45;6.65;;;;;;;;;;6303459;28;20059;-77
2023/07/10 03:37:17;;;;;;;7.35;5.63;;;;;;;;;;6302800;28;20106;-76
2023/07/10 03:40:20;;;;;;;12.20;6.32;;;;;;;;;;6302451;28;20057;-75
2023/07/10 03:43:21;;;;;;;10.45;6.15;;;;;;;;;;6302852;28;20329;-75
2023/07/10 03:46:22;;;;;;;9.23;5.93;;;;;;;;;;6302679;28;20232;-74
2023/07/10 03:49:25;;;;;;;9.77;5.90;;;;;;;;;;6300934;28;20060;-74
2023/07/10 03:52:26;;;;;;;8.17;5.97;;;;;;;;;;6302884;28;20098;-76
2023/07/10 03:55:29;;;;;;;10.13;6.30;;;;;;;;;;6302279;28;20275;-75
2023/07/10 03:58:33;;;;;;;11.00;6.18;;;;;;;;;;6312774;28;20390;-75
2023/07/10 04:01:34;;;;;;;10.02;6.00;;;;;;;;;;6328131;28;20093;-76
2023/07/10 04:04:35;;;;;;;10.32;5.85;;;;;;;;;;6328227;28;20145;-76
2023/07/10 04:07:37;;;;;;;8.43;5.47;;;;;;;;;;6325408;28;20063;-77
2023/07/10 04:10:40;;;;;;;9.02;5.57;;;;;;;;;;6325136;28;20043;-75
2023/07/10 04:13:41;;;;;;;8.02;5.68;;;;;;;;;;6325312;28;20052;-76
2023/07/10 04:16:43;;;;;;;7.57;5.57;;;;;;;;;;6325370;28;20051;-76
2023/07/10 04:19:45;;;;;;;7.93;5.53;;;;;;;;;;6325593;28;20050;-78
2023/07/10 04:22:46;;;;;;;8.20;5.47;;;;;;;;;;6325964;28;20272;-78
2023/07/10 04:25:49;;;;;;;10.15;5.43;;;;;;;;;;6322779;28;20056;-75
2023/07/10 04:28:51;;;;;;;;;;;;;;;;;;6323932;28;20044;-78
2023/07/10 04:31:52;;;;;;;8.48;5.30;;;;;;;;;;6327040;28;19924;-76
2023/07/10 04:34:53;;;;;;;6.78;5.25;;;;;;;;;;6327196;28;20063;-77
2023/07/10 04:37:55;;;;;;;7.68;5.20;;;;;;;;;;6327017;28;20055;-78
2023/07/10 04:40:59;;;;;;;8.40;4.97;;;;;;;;;;6328384;28;20058;-77
2023/07/10 04:44:00;;;;;;;8.55;6.32;;;;;;;;;;6326886;28;20043;-74
2023/07/10 04:47:02;;;;;;;10.88;5.95;;;;;;;;;;6323380;28;20047;-76
2023/07/10 04:50:04;;;;;;;9.05;5.75;;;;;;;;;;6326173;28;20055;-77
2023/07/10 04:53:05;;;;;;;10.63;5.10;;;;;;;;;;6322883;28;20056;-77
2023/07/10 04:56:10;;;;;;;10.07;5.15;;;;;;;;;;6322814;28;20119;-77
2023/07/10 04:59:11;;;;;;;8.45;5.25;;;;;;;;;;6327291;28;20079;-80
2023/07/10 05:02:13;;;;;;;10.20;5.28;;;;;;;;;;6323837;28;20052;-78
2023/07/10 05:05:14;;;;;;;8.50;5.53;;;;;;;;;;6325219;28;20052;-77
2023/07/10 05:08:16;;;;;;;9.82;5.45;;;;;;;;;;6326661;28;20052;-80
2023/07/10 05:11:19;;;;;;;9.00;5.85;;;;;;;;;;6327422;28;20051;-81
2023/07/10 05:14:20;;;;;;;10.25;4.90;;;;;;;;;;6325490;28;20093;-80
2023/07/10 05:17:22;;;;;;;6.47;4.95;;;;;;;;;;6323288;28;20101;-80
2023/07/10 05:20:23;;;;;;;6.93;4.32;;;;;;;;;;6324812;28;20059;-80
2023/07/10 05:23:25;;;;;;;10.85;5.88;;;;;;;;;;6325151;28;20097;-81
2023/07/10 05:26:28;;;;;;;8.95;5.18;;;;;;;;;;6326440;28;20052;-80
2023/07/10 05:29:29;;;;;;;14.05;5.78;;;;;;;;;;6322519;28;20652;-78
2023/07/10 05:32:30;;;;;;;7.90;4.10;;;;;;;;;;6322960;28;20363;-78
2023/07/10 05:35:32;;;;;;;9.38;4.70;;;;;;;;;;6324134;28;20039;-79
2023/07/10 05:38:34;;;;;;;6.00;4.55;;;;;;;;;;6323651;28;20043;-78
2023/07/10 05:41:37;;;;;;;7.38;4.45;;;;;;;;;;6325386;28;20060;-78
2023/07/10 05:44:39;;;;;;;8.98;4.60;;;;;;;;;;6325482;28;20066;-78
2023/07/10 05:47:40;;;;;;;7.78;4.88;;;;;;;;;;6324900;28;20044;-78
2023/07/10 05:50:43;;;;;;;10.52;4.88;;;;;;;;;;6324631;28;20063;-78
2023/07/10 05:53:46;;;;;;;12.77;4.78;;;;;;;;;;6324531;28;20060;-78
2023/07/10 05:56:47;;;;;;;;;;;;;;;;;;6323643;28;20056;-79
2023/07/10 05:59:52;;;;;;;9.95;5.00;;;;;;;;;;6305562;28;19923;-79
2023/07/10 06:02:54;;;;;;;10.25;5.22;;;;;;;;;;6288581;28;20124;-79
2023/07/10 06:05:58;;;;;;;8.57;5.30;;;;;;;;;;6299269;28;20045;-79
2023/07/10 06:08:59;;;;;;;10.75;5.28;;;;;;;;;;6298885;28;20098;-78
2023/07/10 06:12:01;;;;;;;8.98;5.07;;;;;;;;;;6300901;28;20048;-78
2023/07/10 06:15:04;;;;;;;8.88;5.10;;;;;;;;;;6296486;28;20048;-78
2023/07/10 06:18:06;;;;;;;10.70;5.43;;;;;;;;;;6297443;28;20052;-79
2023/07/10 06:21:09;;;;;;;9.48;5.13;;;;;;;;;;6297324;28;20359;-78
2023/07/10 06:24:10;;;;;;;9.98;4.57;;;;;;;;;;6299825;28;20063;-79
2023/07/10 06:27:12;;;;;;;6.85;4.57;;;;;;;;;;6297939;28;20044;-77
2023/07/10 06:30:15;;;;;;;8.90;4.65;;;;;;;;;;6297646;28;20051;-80
2023/07/10 06:33:16;;;;;;;;;;;;;;;;;;6300125;28;20060;-79
2023/07/10 06:36:18;;;;;;;8.30;4.88;;;;;;;;;;6293697;28;19916;-80
2023/07/10 06:39:19;;;;;;;7.82;4.72;;;;;;;;;;6297643;28;20098;-79
2023/07/10 06:42:21;;;;;;;6.85;4.80;;;;;;;;;;6299944;28;20056;-79
2023/07/10 06:45:23;;;;;;;6.93;4.75;;;;;;;;;;6299438;28;20049;-78
2023/07/10 06:48:25;;;;;;;8.13;5.15;;;;;;;;;;6300157;28;20260;-78
2023/07/10 06:51:27;;;;;;;6.28;4.30;;;;;;;;;;6293957;28;20218;-79
2023/07/10 06:54:28;;;;;;;10.93;4.82;;;;;;;;;;6299620;28;20327;-80
2023/07/10 06:57:30;;;;;;;8.77;5.20;;;;;;;;;;6300686;28;20151;-79
2023/07/10 07:00:33;;;;;;;8.63;4.80;;;;;;;;;;6323879;28;20101;-79
2023/07/10 07:03:34;;;;;;;8.77;4.93;;;;;;;;;;6321368;28;20329;-79
2023/07/10 07:06:36;;;;;;;6.13;4.30;;;;;;;;;;6323267;28;20067;-79
2023/07/10 07:09:37;;;;;;;9.07;4.88;;;;;;;;;;6321582;28;20340;-78
2023/07/10 07:12:39;;;;;;;8.32;4.93;;;;;;;;;;6323380;28;20071;-76
2023/07/10 07:15:42;;;;;;;10.25;5.10;;;;;;;;;;6323438;28;20983;-77
2023/07/10 07:18:43;;;;;;;10.88;4.80;;;;;;;;;;6318748;28;20060;-77
2023/07/10 07:21:45;;;;;;;7.05;5.53;;;;;;;;;;6321690;28;20056;-78
2023/07/10 07:24:46;;;;;;;7.93;4.90;;;;;;;;;;6322052;28;20059;-77
2023/07/10 07:27:48;;;;;;;7.55;4.78;;;;;;;;;;6318683;28;20048;-77
2023/07/10 07:30:50;;;;;;;8.07;4.15;;;;;;;;;;6319809;28;20063;-77
2023/07/10 07:33:52;;;;;;;;;;;;;;;;;;6320782;28;20060;-76
2023/07/10 07:36:53;;;;;;;8.00;4.28;;;;;;;;;;6317156;28;19937;-79
2023/07/10 07:39:57;;;;;;;5.95;4.43;;;;;;;;;;6322287;28;20150;-79
2023/07/10 07:42:59;;;;;;;7.70;4.80;;;;;;;;;;6315429;28;20066;-78
2023/07/10 07:46:02;;;;;;;9.75;5.07;;;;;;;;;;6322148;28;20093;-78
2023/07/10 07:49:04;;;;;;;18.40;4.90;;;;;;;;;;6322193;28;20360;-75
2023/07/10 07:52:06;;;;;;;9.98;5.13;;;;;;;;;;6325444;28;20055;-75
2023/07/10 07:55:08;;;;;;;14.25;5.32;;;;;;;;;;6325502;28;20040;-76
2023/07/10 07:58:10;;;;;;;;;;;;;;;;;;6325765;28;20089;-79
2023/07/10 08:01:12;;;;;;;7.70;4.50;;;;;;;;;;6325525;28;19928;-79
2023/07/10 08:04:14;;;;;;;9.02;4.82;;;;;;;;;;6326361;28;20173;-76
2023/07/10 08:07:15;;;;;;;11.48;5.85;;;;;;;;;;6324895;28;20040;-78
2023/07/10 08:10:17;;;;;;;11.18;5.40;;;;;;;;;;6325535;28;20224;-77
2023/07/10 08:13:19;;;;;;;6.03;4.43;;;;;;;;;;6328425;28;20048;-77
2023/07/10 08:16:22;;;;;;;8.85;4.82;;;;;;;;;;6323192;28;21058;-79
2023/07/10 08:19:23;;;;;;;6.72;4.22;;;;;;;;;;6324321;28;20052;-78
2023/07/10 08:22:24;;;;;;;9.32;4.88;;;;;;;;;;6320554;28;20048;-79
2023/07/10 08:25:26;;;;;;;7.95;4.80;;;;;;;;;;6320244;28;20056;-80
2023/07/10 08:28:27;;;;;;;11.40;5.33;;;;;;;;;;6322510;28;20055;-79
2023/07/10 08:31:30;;;;;;;7.40;5.60;;;;;;;;;;6323110;28;20066;-78
2023/07/10 08:34:32;;;;;;;6.75;4.70;;;;;;;;;;6325408;28;20339;-79
2023/07/10 08:37:36;;;;;;;13.65;5.55;;;;;;;;;;6324288;28;20059;-78
2023/07/10 08:40:41;;;;;;;12.00;5.28;;;;;;;;;;6325159;28;20290;-79
2023/07/10 08:43:44;;;;;;;7.80;5.03;;;;;;;;;;6322743;28;20370;-79
2023/07/10 08:46:47;;;;;;;9.63;5.22;;;;;;;;;;6322919;28;20055;-80
2023/07/10 08:49:54;;;;;;;8.10;5.40;;;;;;;;;;6324271;28;20055;-78
2023/07/10 08:53:00;;;;;;;7.70;4.97;;;;;;;;;;6320394;28;20060;-79
2023/07/10 08:56:04;;;;;;;10.85;5.10;;;;;;;;;;6321816;28;20059;-79
2023/07/10 08:59:14;;;;;;;9.57;5.03;;;;;;;;;;6322180;28;20336;-79
2023/07/10 09:02:22;;;;;;;15.25;6.57;;;;;;;;;;6321898;28;20047;-79
2023/07/10 09:05:25;;;;;;;11.75;5.57;;;;;;;;;;6324553;28;20343;-78
2023/07/10 09:08:27;;;;;;;8.30;5.70;;;;;;;;;;6322566;28;20253;-79
2023/07/10 09:11:29;;;;;;;9.10;5.03;;;;;;;;;;6322981;28;20047;-79
2023/07/10 09:14:35;;;;;;;11.60;5.88;;;;;;;;;;6326078;28;20125;-78
2023/07/10 09:17:43;;;;;;;10.07;5.60;;;;;;;;;;6322598;28;20048;-78
2023/07/10 09:20:46;;;;;;;11.48;5.00;;;;;;;;;;6321933;28;20149;-78
2023/07/10 09:23:48;;;;;;;7.78;5.28;;;;;;;;;;6320734;28;20072;-80
2023/07/10 09:26:50;;;;;;;8.10;5.03;;;;;;;;;;6323160;28;20059;-79
2023/07/10 09:29:53;;;;;;;7.57;4.90;;;;;;;;;;6322391;28;20056;-79
2023/07/10 09:33:01;;;;;;;9.80;5.78;;;;;;;;;;6323620;28;20052;-79
2023/07/10 09:36:03;;;;;;;10.75;5.25;;;;;;;;;;6322065;28;20101;-79
2023/07/10 09:39:05;;;;;;;10.75;5.70;;;;;;;;;;6322865;28;20071;-79
2023/07/10 09:42:12;;;;;;;9.32;5.40;;;;;;;;;;6323153;28;20058;-79
2023/07/10 09:45:15;;;;;;;9.20;5.15;;;;;;;;;;6323378;28;20289;-81
2023/07/10 09:48:21;;;;;;;10.40;6.45;;;;;;;;;;6322625;28;20097;-80
2023/07/10 09:51:23;;;;;;;7.80;6.32;;;;;;;;;;6323033;28;20152;-82
2023/07/10 09:54:24;;;;;;;;;;;;;;;;;;6323083;28;20056;-79
2023/07/10 09:57:26;;;;;;;10.30;6.28;;;;;;;;;;6321457;28;20233;-79
2023/07/10 10:00:28;;;;;;;7.97;5.50;;;;;;;;;;6296632;28;20056;-79
2023/07/10 10:03:33;;;;;;;8.38;6.07;;;;;;;;;;6298822;28;20048;-78
2023/07/10 10:06:35;;;;;;;11.70;7.35;;;;;;;;;;6279276;28;20052;-79
2023/07/10 10:09:37;;;;;;;13.57;6.35;;;;;;;;;;6296350;28;20052;-78
2023/07/10 10:12:39;;;;;;;11.75;6.03;;;;;;;;;;6297522;28;20386;-81
2023/07/10 10:15:40;;;;;;;;;;;;;;;;;;6296125;28;20049;-79
2023/07/10 10:18:45;;;;;;;12.63;6.30;;;;;;;;;;6298717;28;19924;-80
2023/07/10 10:21:47;;;;;;;10.05;6.43;;;;;;;;;;6300445;28;20052;-82
2023/07/10 10:24:48;;;;;;;9.15;5.88;;;;;;;;;;6302619;28;20056;-80
2023/07/10 10:27:53;;;;;;;9.35;6.18;;;;;;;;;;6302058;28;20170;-80
2023/07/10 10:30:58;;;;;;;7.85;6.72;;;;;;;;;;6292728;28;20059;-79
2023/07/10 10:34:03;;;;;;;8.55;6.97;;;;;;;;;;6298181;28;20055;-79
2023/07/10 10:37:12;;;;;;;12.25;8.38;;;;;;;;;;6299050;28;20261;-79
2023/07/10 10:40:20;;;;;;;9.52;6.22;;;;;;;;;;6278598;28;20059;-79
2023/07/10 10:43:34;;;;;;;7.38;5.70;;;;;;;;;;6298829;28;20052;-79
2023/07/10 10:46:47;;;;;;;9.90;6.80;;;;;;;;;;6299711;28;20052;-78
2023/07/10 10:50:00;;;;;;;10.18;6.28;;;;;;;;;;6300864;28;20047;-82
2023/07/10 10:53:12;;;;;;;8.77;6.45;;;;;;;;;;6298743;28;20109;-80
2023/07/10 10:56:18;;;;;;;14.45;8.43;;;;;;;;;;6291283;28;20713;-80
2023/07/10 10:59:27;;;;;;;11.40;7.97;;;;;;;;;;6312903;28;20059;-79
2023/07/10 11:02:35;;;;;;;8.85;6.35;;;;;;;;;;6322230;28;20127;-80
2023/07/10 11:05:40;;;;;;;8.55;6.50;;;;;;;;;;6319791;28;20044;-79
2023/07/10 11:08:45;;;;;;;11.00;6.72;;;;;;;;;;6319729;28;20059;-79
2023/07/10 11:11:47;;;;;;;8.43;5.88;;;;;;;;;;6321039;28;20071;-79
2023/07/10 11:14:49;;;;;;;12.25;7.18;;;;;;;;;;6322081;28;20052;-80
2023/07/10 11:17:51;;;;;;;10.98;6.47;;;;;;;;;;6322306;28;20047;-80
2023/07/10 11:20:54;;;;;;;10.18;6.57;;;;;;;;;;6322408;28;20054;-79
2023/07/10 11:23:56;;;;;;;7.97;6.80;;;;;;;;;;6326493;28;20044;-79
2023/07/10 11:27:06;;;;;;;9.38;6.35;;;;;;;;;;6324719;28;20051;-78
2023/07/10 11:30:08;;;;;;;6.78;5.65;;;;;;;;;;6328259;28;20048;-78
2023/07/10 11:33:16;;;;;;;10.68;6.03;;;;;;;;;;6329988;28;20048;-79
2023/07/10 11:36:35;;;;;;;10.48;5.47;;;;;;;;;;6328102;28;20048;-79
2023/07/10 11:39:38;;;;;;;7.57;6.05;;;;;;;;;;6327294;28;20055;-81
2023/07/10 11:42:39;;;;;;;7.45;6.03;;;;;;;;;;6327779;28;20336;-79
2023/07/10 11:45:45;;;;;;;7.78;5.22;;;;;;;;;;6327756;28;20051;-81
2023/07/10 11:48:57;;;;;;;12.13;6.55;;;;;;;;;;6328975;28;20068;-78
2023/07/10 11:52:26;;;;;;;9.50;6.57;;;;;;;;;;6328563;28;20065;-81
2023/07/10 11:55:28;;;;;;;8.30;5.10;;;;;;;;;;6326334;28;20075;-81
2023/07/10 11:58:30;;;;;;;9.82;6.20;;;;;;;;;;6326648;28;20052;-82
2023/07/10 12:01:32;;;;;;;10.38;5.47;;;;;;;;;;6327064;28;20060;-80
2023/07/10 12:04:34;;;;;;;14.00;6.30;;;;;;;;;;6329224;28;20048;-78
2023/07/10 12:07:37;;;;;;;11.27;5.93;;;;;;;;;;6329664;28;20248;-81
2023/07/10 12:10:40;;;;;;;8.93;5.40;;;;;;;;;;6327646;28;20063;-81
2023/07/10 12:13:41;;;;;;;8.23;5.55;;;;;;;;;;6326428;28;20062;-82
2023/07/10 12:16:45;;;;;;;8.48;5.40;;;;;;;;;;6328912;28;20109;-81
2023/07/10 12:19:48;;;;;;;8.52;5.63;;;;;;;;;;6327340;28;20118;-81
2023/07/10 12:22:52;;;;;;;9.50;5.97;;;;;;;;;;6326103;28;20055;-79
2023/07/10 12:25:55;;;;;;;6.10;5.03;;;;;;;;;;6326539;28;20705;-79
2023/07/10 12:28:58;;;;;;;8.05;5.10;;;;;;;;;;6325336;28;20332;-78
2023/07/10 12:31:59;;;;;;;7.78;5.63;;;;;;;;;;6326295;28;20356;-79
2023/07/10 12:35:01;;;;;;;;;;;;;;;;;;6326774;28;20218;-79
2023/07/10 12:38:05;;;;;;;9.00;5.05;;;;;;;;;;6328130;28;19916;-79
2023/07/10 12:41:07;;;;;;;6.50;4.97;;;;;;;;;;6327504;28;20098;-78
2023/07/10 12:44:17;;;;;;;6.50;5.50;;;;;;;;;;6325861;28;20040;-78
2023/07/10 12:47:19;;;;;;;6.32;4.72;;;;;;;;;;6326775;28;20352;-78
2023/07/10 12:50:21;;;;;;;8.63;5.18;;;;;;;;;;6327497;28;20228;-81
2023/07/10 12:53:25;;;;;;;10.10;5.90;;;;;;;;;;6325687;28;20058;-79
2023/07/10 12:56:28;;;;;;;11.23;5.03;;;;;;;;;;6306676;28;20131;-78
2023/07/10 12:59:32;;;;;;;9.15;5.22;;;;;;;;;;6324412;28;20051;-78
2023/07/10 13:02:37;;;;;;;6.60;5.43;;;;;;;;;;6325408;28;20086;-79
2023/07/10 13:05:38;;;;;;;8.77;4.68;;;;;;;;;;6325932;28;20062;-80
2023/07/10 13:08:41;;;;;;;7.43;4.95;;;;;;;;;;6326295;28;20145;-78
2023/07/10 13:11:43;;;;;;;10.40;5.47;;;;;;;;;;6325500;28;20052;-81
2023/07/10 13:14:45;;;;;;;8.15;5.20;;;;;;;;;;6325466;28;20101;-78
2023/07/10 13:17:48;;;;;;;9.48;5.65;;;;;;;;;;6326812;28;20344;-80
2023/07/10 13:20:50;;;;;;;6.43;4.80;;;;;;;;;;6326926;28;20162;-80
2023/07/10 13:23:52;;;;;;;6.60;5.30;;;;;;;;;;6325495;28;20355;-80
2023/07/10 13:26:54;;;;;;;9.73;5.78;;;;;;;;;;6327386;28;21072;-81
2023/07/10 13:29:56;;;;;;;9.05;5.38;;;;;;;;;;6325586;28;20111;-78
2023/07/10 13:32:57;;;;;;;7.90;5.28;;;;;;;;;;6324041;28;20044;-81
2023/07/10 13:35:59;;;;;;;6.72;5.53;;;;;;;;;;6329150;28;20255;-79
2023/07/10 13:39:02;;;;;;;7.32;5.00;;;;;;;;;;6325639;28;20228;-78
2023/07/10 13:42:04;;;;;;;8.68;5.15;;;;;;;;;;6323546;28;20052;-80
2023/07/10 13:45:06;;;;;;;5.22;4.47;;;;;;;;;;6322545;28;20247;-81
2023/07/10 13:48:10;;;;;;;7.30;5.00;;;;;;;;;;6320462;28;20069;-81
2023/07/10 13:51:12;;;;;;;9.90;5.05;;;;;;;;;;6325371;28;20052;-79
2023/07/10 13:54:15;;;;;;;9.05;4.97;;;;;;;;;;6322797;28;20056;-78
2023/07/10 13:57:17;;;;;;;7.30;5.18;;;;;;;;;;6323516;28;20052;-81
2023/07/10 14:00:19;;;;;;;8.82;5.05;;;;;;;;;;6327486;28;20052;-79
2023/07/10 14:03:20;;;;;;;;;;;;;;;;;;6327793;28;20233;-78
2023/07/10 14:06:28;;;;;;;25.63;6.50;;;;;;;;;;6323655;28;20078;-77
2023/07/10 14:09:31;;;;;;;7.95;4.65;;;;;;;;;;6320541;28;20101;-78
2023/07/10 14:12:33;;;;;;;9.13;4.40;;;;;;;;;;6326062;28;20055;-79
2023/07/10 14:15:34;;;;;;;6.07;4.60;;;;;;;;;;6323735;28;20048;-78
2023/07/10 14:18:35;;;;;;;6.80;4.80;;;;;;;;;;6323808;28;20044;-80
2023/07/10 14:21:37;;;;;;;6.13;4.40;;;;;;;;;;6325007;28;20054;-78
2023/07/10 14:24:40;;;;;;;8.77;5.20;;;;;;;;;;6324665;28;20271;-78
2023/07/10 14:27:42;;;;;;;5.07;4.03;;;;;;;;;;6324733;28;20047;-80
2023/07/10 14:30:43;;;;;;;;;;;;;;;;;;6323184;28;20066;-80
2023/07/10 14:33:45;;;;;;;9.90;4.93;;;;;;;;;;6324399;28;20200;-78
2023/07/10 14:36:46;;;;;;;8.82;4.78;;;;;;;;;;6323899;28;20247;-80
2023/07/10 14:39:50;;;;;;;10.48;5.03;;;;;;;;;;6324580;28;20104;-82
2023/07/10 14:42:51;;;;;;;7.35;4.20;;;;;;;;;;6322197;28;20056;-79
2023/07/10 14:45:54;;;;;;;11.15;5.13;;;;;;;;;;6323993;28;20050;-80
2023/07/10 14:48:56;;;;;;;5.68;4.68;;;;;;;;;;6324835;28;20113;-79
2023/07/10 14:51:57;;;;;;;8.48;4.95;;;;;;;;;;6324807;28;20047;-79
2023/07/10 14:55:03;;;;;;;5.97;3.92;;;;;;;;;;6324445;28;20048;-80
2023/07/10 14:58:05;;;;;;;4.78;4.20;;;;;;;;;;6328566;28;20402;-80
2023/07/10 15:01:08;;;;;;;8.70;4.80;;;;;;;;;;6328255;28;20074;-80
2023/07/10 15:04:10;;;;;;;9.60;4.68;;;;;;;;;;6329359;28;20063;-79
2023/07/10 15:07:13;;;;;;;6.90;4.68;;;;;;;;;;6329292;28;20209;-81
2023/07/10 15:10:20;;;;;;;8.40;4.65;;;;;;;;;;6331015;28;20359;-80
2023/07/10 15:13:22;;;;;;;5.78;4.45;;;;;;;;;;6328464;28;20136;-80
2023/07/10 15:16:25;;;;;;;11.52;5.18;;;;;;;;;;6329078;28;20051;-80
2023/07/10 15:19:26;;;;;;;19.67;9.20;;;;;;;;;;6328175;28;20056;-80
2023/07/10 15:22:28;;;;;;;10.30;4.97;;;;;;;;;;6329470;28;20044;-80
2023/07/10 15:25:31;;;;;;;7.18;3.90;;;;;;;;;;6331241;28;20052;-80
2023/07/10 15:28:33;;;;;;;7.45;4.38;;;;;;;;;;6329843;28;20119;-79
2023/07/10 15:31:34;;;;;;;6.28;4.30;;;;;;;;;;6327753;28;20060;-80
2023/07/10 15:34:36;;;;;;;9.10;4.85;;;;;;;;;;6329163;28;20236;-80
2023/07/10 15:37:38;;;;;;;7.80;4.50;;;;;;;;;;6329379;28;20125;-79
2023/07/10 15:40:41;;;;;;;5.93;3.90;;;;;;;;;;6328086;28;20056;-79
2023/07/10 15:43:45;;;;;;;6.28;3.63;;;;;;;;;;6328096;28;20056;-79
2023/07/10 15:46:46;;;;;;;7.43;4.07;;;;;;;;;;6327378;28;20069;-81
2023/07/10 15:49:48;;;;;;;6.97;3.92;;;;;;;;;;6327778;28;20052;-78
2023/07/10 15:52:50;;;;;;;8.88;3.97;;;;;;;;;;6325697;28;20130;-78
2023/07/10 15:55:53;;;;;;;6.25;3.28;;;;;;;;;;6327299;28;20348;-78
2023/07/10 15:58:55;;;;;;;6.28;3.60;;;;;;;;;;6327557;28;20056;-78
2023/07/10 16:01:56;;;;;;;41.03;25.05;;;;;;;;;;6327399;28;20049;-79
2023/07/10 16:04:57;;;;;;;17.63;8.17;;;;;;;;;;6330593;28;20056;-78
2023/07/10 16:07:59;;;;;;;6.67;3.80;;;;;;;;;;6326891;28;20466;-79
2023/07/10 16:11:05;;;;;;;7.38;3.83;;;;;;;;;;6328999;28;20336;-80
2023/07/10 16:14:10;;;;;;;4.45;3.40;;;;;;;;;;6327837;28;20043;-79
2023/07/10 16:17:13;;;;;;;10.95;3.95;;;;;;;;;;6326719;28;20075;-78
2023/07/10 16:20:15;;;;;;;9.45;4.10;;;;;;;;;;6327938;28;20047;-79
2023/07/10 16:23:18;;;;;;;14.27;6.75;;;;;;;;;;6327953;28;20056;-79
2023/07/10 16:26:22;;;;;;;17.55;12.48;;;;;;;;;;6328364;28;20053;-78
2023/07/10 16:29:23;;;;;;;7.38;3.70;;;;;;;;;;6326928;28;20059;-79
2023/07/10 16:32:25;;;;;;;9.43;3.80;;;;;;;;;;6329179;28;20048;-79
2023/07/10 16:35:26;;;;;;;8.77;5.03;;;;;;;;;;6327674;28;20875;-78
2023/07/10 16:38:27;;;;;;;5.88;4.05;;;;;;;;;;6327870;28;20054;-79
2023/07/10 16:41:30;;;;;;;8.53;5.00;;;;;;;;;;6330130;28;20040;-78
2023/07/10 16:44:32;;;;;;;9.20;4.57;;;;;;;;;;6329070;28;20493;-79
2023/07/10 16:47:33;;;;;;;6.70;4.30;;;;;;;;;;6326508;28;20056;-77
2023/07/10 16:50:35;;;;;;;6.07;4.20;;;;;;;;;;6328401;28;20899;-78
2023/07/10 16:53:39;;;;;;;8.00;4.10;;;;;;;;;;6325581;28;20248;-79
2023/07/10 16:56:43;;;;;;;8.02;4.05;;;;;;;;;;6326263;28;20643;-79
2023/07/10 16:59:45;;;;;;;6.85;3.88;;;;;;;;;;6310122;28;20053;-78
2023/07/10 17:02:51;;;;;;;6.50;4.57;;;;;;;;;;6302485;28;20056;-79
2023/07/10 17:05:53;;;;;;;11.07;4.57;;;;;;;;;;6303399;28;20691;-81
2023/07/10 17:08:55;;;;;;;6.68;4.32;;;;;;;;;;6301968;28;20363;-80
2023/07/10 17:11:57;;;;;;;7.60;4.25;;;;;;;;;;6302911;28;20060;-78
2023/07/10 17:14:59;;;;;;;6.40;3.95;;;;;;;;;;6301207;28;20052;-79
2023/07/10 17:18:00;;;;;;;7.60;4.10;;;;;;;;;;6301185;28;20045;-78
2023/07/10 17:21:04;;;;;;;8.23;4.27;;;;;;;;;;6300311;28;20466;-78
2023/07/10 17:24:11;;;;;;;7.47;4.00;;;;;;;;;;6301538;28;20329;-80
2023/07/10 17:27:14;;;;;;;6.45;3.95;;;;;;;;;;6299047;28;20257;-80
2023/07/10 17:30:16;;;;;;;8.75;3.83;;;;;;;;;;6300192;28;20048;-82
2023/07/10 17:33:29;;;;;;;6.80;3.47;;;;;;;;;;6299078;28;20056;-80
2023/07/10 17:36:31;;;;;;;5.70;3.85;;;;;;;;;;6300043;28;20052;-78
2023/07/10 17:39:32;;;;;;;6.13;4.35;;;;;;;;;;6301286;28;20237;-79
2023/07/10 17:42:36;;;;;;;12.03;3.87;;;;;;;;;;6299312;28;20082;-81
2023/07/10 17:45:37;;;;;;;9.23;4.57;;;;;;;;;;6301382;28;20480;-79
2023/07/10 17:48:39;;;;;;;8.80;4.00;;;;;;;;;;6297004;28;20061;-80
2023/07/10 17:51:40;;;;;;;6.03;3.80;;;;;;;;;;6300397;28;20053;-79
2023/07/10 17:54:42;;;;;;;7.73;4.10;;;;;;;;;;6301269;28;20056;-79
2023/07/10 17:57:45;;;;;;;8.07;3.95;;;;;;;;;;6299655;28;20060;-81
2023/07/10 18:00:48;;;;;;;8.65;4.32;;;;;;;;;;6322774;28;20332;-80
2023/07/10 18:03:51;;;;;;;8.98;4.05;;;;;;;;;;6324579;28;20048;-88
2023/07/10 18:06:53;;;;;;;10.57;4.00;;;;;;;;;;6329120;28;20052;-83
2023/07/10 18:09:55;;;;;;;6.03;3.60;;;;;;;;;;6323756;28;20052;-81
2023/07/10 18:12:57;;;;;;;9.20;3.70;;;;;;;;;;6325345;28;20059;-82
2023/07/10 18:15:59;;;;;;;8.85;4.30;;;;;;;;;;6324849;28;20086;-83